sensor_id;sensor_type;location;lat;lon;timestamp;P1;durP1;ratioP1;P2;durP2;ratioP2
35961;SDS011;22044;48.298;10.008;2023-11-18T00:00:04;2.53;;;2.03;;
35961;SDS011;22044;48.298;10.008;2023-11-18T00:02:55;2.10;;;2.00;;
35961;SDS011;22044;48.298;10.008;2023-11-18T00:05:41;2.50;;;2.20;;
35961;SDS011;22044;48.298;10.008;2023-11-18T00:08:26;2.33;;;2.13;;
35961;SDS011;22044;48.298;10.008;2023-11-18T00:11:13;2.50;;;2.20;;
35961;SDS011;22044;48.298;10.008;2023-11-18T00:13:59;2.90;;;2.37;;
35961;SDS011;22044;48.298;10.008;2023-11-18T00:16:44;2.37;;;2.17;;
35961;SDS011;22044;48.298;10.008;2023-11-18T00:19:30;2.87;;;2.00;;
35961;SDS011;22044;48.298;10.008;2023-11-18T00:22:16;2.07;;;1.87;;
35961;SDS011;22044;48.298;10.008;2023-11-18T00:25:01;2.40;;;2.03;;
35961;SDS011;22044;48.298;10.008;2023-11-18T00:27:50;2.67;;;2.30;;
35961;SDS011;22044;48.298;10.008;2023-11-18T00:30:35;2.30;;;2.10;;
35961;SDS011;22044;48.298;10.008;2023-11-18T00:33:21;2.83;;;1.90;;
35961;SDS011;22044;48.298;10.008;2023-11-18T00:36:07;3.30;;;2.07;;
35961;SDS011;22044;48.298;10.008;2023-11-18T00:38:53;2.57;;;2.20;;
35961;SDS011;22044;48.298;10.008;2023-11-18T00:41:38;2.43;;;2.03;;
35961;SDS011;22044;48.298;10.008;2023-11-18T00:44:25;2.67;;;1.70;;
35961;SDS011;22044;48.298;10.008;2023-11-18T00:47:11;2.40;;;2.20;;
35961;SDS011;22044;48.298;10.008;2023-11-18T00:49:56;4.80;;;2.10;;
35961;SDS011;22044;48.298;10.008;2023-11-18T00:52:42;2.23;;;2.00;;
35961;SDS011;22044;48.298;10.008;2023-11-18T00:55:32;2.37;;;1.93;;
35961;SDS011;22044;48.298;10.008;2023-11-18T00:58:17;2.40;;;2.20;;
35961;SDS011;22044;48.298;10.008;2023-11-18T01:01:05;2.27;;;2.00;;
35961;SDS011;22044;48.298;10.008;2023-11-18T01:03:51;2.30;;;2.10;;
35961;SDS011;22044;48.298;10.008;2023-11-18T01:06:37;2.50;;;2.30;;
35961;SDS011;22044;48.298;10.008;2023-11-18T01:09:23;2.27;;;2.07;;
35961;SDS011;22044;48.298;10.008;2023-11-18T01:12:09;2.47;;;2.10;;
35961;SDS011;22044;48.298;10.008;2023-11-18T01:14:54;2.40;;;2.20;;
35961;SDS011;22044;48.298;10.008;2023-11-18T01:17:43;2.37;;;2.17;;
35961;SDS011;22044;48.298;10.008;2023-11-18T01:20:29;2.50;;;2.30;;
35961;SDS011;22044;48.298;10.008;2023-11-18T01:23:15;2.57;;;2.10;;
35961;SDS011;22044;48.298;10.008;2023-11-18T01:26:01;2.30;;;2.10;;
35961;SDS011;22044;48.298;10.008;2023-11-18T01:28:49;2.47;;;2.27;;
35961;SDS011;22044;48.298;10.008;2023-11-18T01:31:34;2.80;;;2.30;;
35961;SDS011;22044;48.298;10.008;2023-11-18T01:34:21;3.33;;;1.87;;
35961;SDS011;22044;48.298;10.008;2023-11-18T01:37:07;2.50;;;2.30;;
35961;SDS011;22044;48.298;10.008;2023-11-18T01:39:53;2.20;;;2.00;;
35961;SDS011;22044;48.298;10.008;2023-11-18T01:42:41;2.47;;;2.20;;
35961;SDS011;22044;48.298;10.008;2023-11-18T01:45:27;2.67;;;2.47;;
35961;SDS011;22044;48.298;10.008;2023-11-18T01:48:14;3.73;;;2.30;;
35961;SDS011;22044;48.298;10.008;2023-11-18T01:51:02;2.83;;;2.20;;
35961;SDS011;22044;48.298;10.008;2023-11-18T01:53:51;2.93;;;2.00;;
35961;SDS011;22044;48.298;10.008;2023-11-18T01:56:36;2.43;;;2.20;;
35961;SDS011;22044;48.298;10.008;2023-11-18T01:59:22;2.47;;;2.07;;
35961;SDS011;22044;48.298;10.008;2023-11-18T02:02:10;2.27;;;2.00;;
35961;SDS011;22044;48.298;10.008;2023-11-18T02:04:55;2.33;;;2.13;;
35961;SDS011;22044;48.298;10.008;2023-11-18T02:07:42;2.77;;;2.50;;
35961;SDS011;22044;48.298;10.008;2023-11-18T02:10:30;2.50;;;2.10;;
35961;SDS011;22044;48.298;10.008;2023-11-18T02:13:19;2.47;;;2.23;;
35961;SDS011;22044;48.298;10.008;2023-11-18T02:16:09;3.13;;;2.40;;
35961;SDS011;22044;48.298;10.008;2023-11-18T02:18:55;2.83;;;2.17;;
35961;SDS011;22044;48.298;10.008;2023-11-18T02:21:42;2.40;;;2.20;;
35961;SDS011;22044;48.298;10.008;2023-11-18T02:24:31;2.20;;;2.00;;
35961;SDS011;22044;48.298;10.008;2023-11-18T02:27:22;2.77;;;2.40;;
35961;SDS011;22044;48.298;10.008;2023-11-18T02:30:09;2.77;;;2.47;;
35961;SDS011;22044;48.298;10.008;2023-11-18T02:32:58;2.90;;;2.60;;
35961;SDS011;22044;48.298;10.008;2023-11-18T02:35:51;3.63;;;2.70;;
35961;SDS011;22044;48.298;10.008;2023-11-18T02:38:41;3.00;;;2.70;;
35961;SDS011;22044;48.298;10.008;2023-11-18T02:41:33;3.37;;;2.83;;
35961;SDS011;22044;48.298;10.008;2023-11-18T02:44:22;2.37;;;2.17;;
35961;SDS011;22044;48.298;10.008;2023-11-18T02:47:09;4.10;;;3.20;;
35961;SDS011;22044;48.298;10.008;2023-11-18T02:49:55;2.93;;;2.40;;
35961;SDS011;22044;48.298;10.008;2023-11-18T02:52:46;2.93;;;2.63;;
35961;SDS011;22044;48.298;10.008;2023-11-18T02:55:32;2.47;;;2.27;;
35961;SDS011;22044;48.298;10.008;2023-11-18T02:58:19;3.60;;;2.77;;
35961;SDS011;22044;48.298;10.008;2023-11-18T03:01:06;3.30;;;2.80;;
35961;SDS011;22044;48.298;10.008;2023-11-18T03:03:52;3.80;;;2.90;;
35961;SDS011;22044;48.298;10.008;2023-11-18T03:06:38;2.50;;;2.30;;
35961;SDS011;22044;48.298;10.008;2023-11-18T03:09:24;3.90;;;3.20;;
35961;SDS011;22044;48.298;10.008;2023-11-18T03:12:11;5.67;;;3.30;;
35961;SDS011;22044;48.298;10.008;2023-11-18T03:14:57;2.20;;;2.00;;
35961;SDS011;22044;48.298;10.008;2023-11-18T03:17:43;2.47;;;2.10;;
35961;SDS011;22044;48.298;10.008;2023-11-18T03:20:29;4.27;;;2.50;;
35961;SDS011;22044;48.298;10.008;2023-11-18T03:23:14;2.90;;;2.60;;
35961;SDS011;22044;48.298;10.008;2023-11-18T03:26:00;2.43;;;2.23;;
35961;SDS011;22044;48.298;10.008;2023-11-18T03:28:45;2.53;;;2.23;;
35961;SDS011;22044;48.298;10.008;2023-11-18T03:31:31;2.70;;;2.50;;
35961;SDS011;22044;48.298;10.008;2023-11-18T03:34:18;2.53;;;2.23;;
35961;SDS011;22044;48.298;10.008;2023-11-18T03:37:04;2.97;;;2.30;;
35961;SDS011;22044;48.298;10.008;2023-11-18T03:39:49;2.43;;;2.23;;
35961;SDS011;22044;48.298;10.008;2023-11-18T03:42:35;2.50;;;2.30;;
35961;SDS011;22044;48.298;10.008;2023-11-18T03:45:21;2.70;;;2.50;;
35961;SDS011;22044;48.298;10.008;2023-11-18T03:48:07;3.20;;;2.53;;
35961;SDS011;22044;48.298;10.008;2023-11-18T03:50:55;4.10;;;2.73;;
35961;SDS011;22044;48.298;10.008;2023-11-18T03:53:40;3.80;;;3.00;;
35961;SDS011;22044;48.298;10.008;2023-11-18T03:56:26;2.47;;;2.27;;
35961;SDS011;22044;48.298;10.008;2023-11-18T03:59:12;3.80;;;2.10;;
35961;SDS011;22044;48.298;10.008;2023-11-18T04:01:58;3.33;;;3.03;;
35961;SDS011;22044;48.298;10.008;2023-11-18T04:04:43;6.13;;;3.67;;
35961;SDS011;22044;48.298;10.008;2023-11-18T04:07:30;4.27;;;3.60;;
35961;SDS011;22044;48.298;10.008;2023-11-18T04:10:16;6.43;;;4.00;;
35961;SDS011;22044;48.298;10.008;2023-11-18T04:13:02;3.20;;;2.90;;
35961;SDS011;22044;48.298;10.008;2023-11-18T04:15:47;2.53;;;2.33;;
35961;SDS011;22044;48.298;10.008;2023-11-18T04:18:33;2.63;;;2.43;;
35961;SDS011;22044;48.298;10.008;2023-11-18T04:21:19;3.17;;;2.80;;
35961;SDS011;22044;48.298;10.008;2023-11-18T04:24:06;3.70;;;3.00;;
35961;SDS011;22044;48.298;10.008;2023-11-18T04:26:53;5.40;;;4.03;;
35961;SDS011;22044;48.298;10.008;2023-11-18T04:29:38;4.13;;;3.37;;
35961;SDS011;22044;48.298;10.008;2023-11-18T04:32:24;3.10;;;2.80;;
35961;SDS011;22044;48.298;10.008;2023-11-18T04:35:10;2.93;;;2.63;;
35961;SDS011;22044;48.298;10.008;2023-11-18T04:37:56;3.47;;;2.70;;
35961;SDS011;22044;48.298;10.008;2023-11-18T04:40:44;3.43;;;2.97;;
35961;SDS011;22044;48.298;10.008;2023-11-18T04:43:29;3.57;;;2.90;;
35961;SDS011;22044;48.298;10.008;2023-11-18T04:46:15;3.50;;;3.10;;
35961;SDS011;22044;48.298;10.008;2023-11-18T04:49:00;3.47;;;3.10;;
35961;SDS011;22044;48.298;10.008;2023-11-18T04:51:46;3.50;;;3.20;;
35961;SDS011;22044;48.298;10.008;2023-11-18T04:54:32;4.43;;;2.90;;
35961;SDS011;22044;48.298;10.008;2023-11-18T04:57:18;3.40;;;3.10;;
35961;SDS011;22044;48.298;10.008;2023-11-18T05:00:05;5.43;;;3.50;;
35961;SDS011;22044;48.298;10.008;2023-11-18T05:02:54;3.57;;;3.27;;
35961;SDS011;22044;48.298;10.008;2023-11-18T05:05:40;3.30;;;3.00;;
35961;SDS011;22044;48.298;10.008;2023-11-18T05:08:26;3.37;;;3.07;;
35961;SDS011;22044;48.298;10.008;2023-11-18T05:11:11;4.43;;;3.47;;
35961;SDS011;22044;48.298;10.008;2023-11-18T05:13:58;3.80;;;3.27;;
35961;SDS011;22044;48.298;10.008;2023-11-18T05:16:44;3.43;;;3.13;;
35961;SDS011;22044;48.298;10.008;2023-11-18T05:19:30;4.03;;;3.40;;
35961;SDS011;22044;48.298;10.008;2023-11-18T05:22:16;3.33;;;3.03;;
35961;SDS011;22044;48.298;10.008;2023-11-18T05:25:01;3.57;;;3.27;;
35961;SDS011;22044;48.298;10.008;2023-11-18T05:27:48;4.07;;;3.40;;
35961;SDS011;22044;48.298;10.008;2023-11-18T05:30:35;3.70;;;3.37;;
35961;SDS011;22044;48.298;10.008;2023-11-18T05:33:21;3.60;;;2.97;;
35961;SDS011;22044;48.298;10.008;2023-11-18T05:36:06;3.60;;;3.20;;
35961;SDS011;22044;48.298;10.008;2023-11-18T05:38:54;4.20;;;3.60;;
35961;SDS011;22044;48.298;10.008;2023-11-18T05:41:40;4.23;;;3.40;;
35961;SDS011;22044;48.298;10.008;2023-11-18T05:44:29;3.70;;;3.30;;
35961;SDS011;22044;48.298;10.008;2023-11-18T05:47:22;3.80;;;3.47;;
35961;SDS011;22044;48.298;10.008;2023-11-18T05:50:09;3.67;;;3.37;;
35961;SDS011;22044;48.298;10.008;2023-11-18T05:52:55;4.67;;;3.80;;
35961;SDS011;22044;48.298;10.008;2023-11-18T05:55:40;4.57;;;4.00;;
35961;SDS011;22044;48.298;10.008;2023-11-18T05:58:26;4.77;;;4.13;;
35961;SDS011;22044;48.298;10.008;2023-11-18T06:01:12;4.63;;;4.13;;
35961;SDS011;22044;48.298;10.008;2023-11-18T06:03:59;6.03;;;4.60;;
35961;SDS011;22044;48.298;10.008;2023-11-18T06:06:45;6.10;;;5.27;;
35961;SDS011;22044;48.298;10.008;2023-11-18T06:09:31;8.47;;;6.10;;
35961;SDS011;22044;48.298;10.008;2023-11-18T06:12:17;7.33;;;5.77;;
35961;SDS011;22044;48.298;10.008;2023-11-18T06:15:02;7.57;;;6.77;;
35961;SDS011;22044;48.298;10.008;2023-11-18T06:17:48;8.53;;;7.00;;
35961;SDS011;22044;48.298;10.008;2023-11-18T06:20:35;10.27;;;8.13;;
35961;SDS011;22044;48.298;10.008;2023-11-18T06:23:22;11.57;;;8.17;;
35961;SDS011;22044;48.298;10.008;2023-11-18T06:26:08;10.27;;;8.03;;
35961;SDS011;22044;48.298;10.008;2023-11-18T06:28:54;9.20;;;8.00;;
35961;SDS011;22044;48.298;10.008;2023-11-18T06:31:41;10.47;;;8.57;;
35961;SDS011;22044;48.298;10.008;2023-11-18T06:34:27;9.73;;;7.90;;
35961;SDS011;22044;48.298;10.008;2023-11-18T06:37:14;9.50;;;7.97;;
35961;SDS011;22044;48.298;10.008;2023-11-18T06:40:00;12.10;;;9.27;;
35961;SDS011;22044;48.298;10.008;2023-11-18T06:42:50;10.37;;;8.63;;
35961;SDS011;22044;48.298;10.008;2023-11-18T06:45:41;12.73;;;9.50;;
35961;SDS011;22044;48.298;10.008;2023-11-18T06:48:27;13.23;;;10.30;;
35961;SDS011;22044;48.298;10.008;2023-11-18T06:51:13;11.40;;;9.33;;
35961;SDS011;22044;48.298;10.008;2023-11-18T06:54:00;17.03;;;10.30;;
35961;SDS011;22044;48.298;10.008;2023-11-18T06:56:51;14.37;;;10.67;;
35961;SDS011;22044;48.298;10.008;2023-11-18T06:59:37;12.30;;;9.83;;
35961;SDS011;22044;48.298;10.008;2023-11-18T07:02:23;16.23;;;11.30;;
35961;SDS011;22044;48.298;10.008;2023-11-18T07:05:08;11.83;;;9.63;;
35961;SDS011;22044;48.298;10.008;2023-11-18T07:07:56;15.43;;;11.03;;
35961;SDS011;22044;48.298;10.008;2023-11-18T07:10:43;11.57;;;9.50;;
35961;SDS011;22044;48.298;10.008;2023-11-18T07:13:30;12.63;;;10.07;;
35961;SDS011;22044;48.298;10.008;2023-11-18T07:16:17;10.87;;;8.67;;
35961;SDS011;22044;48.298;10.008;2023-11-18T07:19:03;11.20;;;9.03;;
35961;SDS011;22044;48.298;10.008;2023-11-18T07:21:49;10.70;;;8.70;;
35961;SDS011;22044;48.298;10.008;2023-11-18T07:24:35;27.83;;;20.37;;
35961;SDS011;22044;48.298;10.008;2023-11-18T07:27:22;11.63;;;9.93;;
35961;SDS011;22044;48.298;10.008;2023-11-18T07:30:08;10.80;;;9.37;;
35961;SDS011;22044;48.298;10.008;2023-11-18T07:32:55;10.90;;;8.73;;
35961;SDS011;22044;48.298;10.008;2023-11-18T07:35:45;12.77;;;8.17;;
35961;SDS011;22044;48.298;10.008;2023-11-18T07:38:31;13.07;;;10.20;;
35961;SDS011;22044;48.298;10.008;2023-11-18T07:41:18;12.30;;;9.27;;
35961;SDS011;22044;48.298;10.008;2023-11-18T07:44:09;10.63;;;8.73;;
35961;SDS011;22044;48.298;10.008;2023-11-18T07:46:56;10.97;;;8.53;;
35961;SDS011;22044;48.298;10.008;2023-11-18T07:49:42;9.83;;;7.93;;
35961;SDS011;22044;48.298;10.008;2023-11-18T07:52:29;11.57;;;8.80;;
35961;SDS011;22044;48.298;10.008;2023-11-18T07:55:15;11.07;;;8.43;;
35961;SDS011;22044;48.298;10.008;2023-11-18T07:58:00;10.60;;;8.70;;
35961;SDS011;22044;48.298;10.008;2023-11-18T08:00:49;10.30;;;8.23;;
35961;SDS011;22044;48.298;10.008;2023-11-18T08:03:34;10.23;;;8.27;;
35961;SDS011;22044;48.298;10.008;2023-11-18T08:06:20;8.60;;;7.70;;
35961;SDS011;22044;48.298;10.008;2023-11-18T08:09:10;11.13;;;8.00;;
35961;SDS011;22044;48.298;10.008;2023-11-18T08:11:57;9.63;;;7.90;;
35961;SDS011;22044;48.298;10.008;2023-11-18T08:14:43;11.50;;;9.17;;
35961;SDS011;22044;48.298;10.008;2023-11-18T08:17:30;9.10;;;7.67;;
35961;SDS011;22044;48.298;10.008;2023-11-18T08:20:15;10.17;;;8.27;;
35961;SDS011;22044;48.298;10.008;2023-11-18T08:23:01;9.40;;;7.83;;
35961;SDS011;22044;48.298;10.008;2023-11-18T08:25:48;10.70;;;8.80;;
35961;SDS011;22044;48.298;10.008;2023-11-18T08:28:34;11.47;;;8.67;;
35961;SDS011;22044;48.298;10.008;2023-11-18T08:31:20;9.77;;;8.70;;
35961;SDS011;22044;48.298;10.008;2023-11-18T08:34:07;10.17;;;7.63;;
35961;SDS011;22044;48.298;10.008;2023-11-18T08:36:54;10.20;;;8.00;;
35961;SDS011;22044;48.298;10.008;2023-11-18T08:39:41;11.43;;;7.90;;
35961;SDS011;22044;48.298;10.008;2023-11-18T08:42:27;10.03;;;8.03;;
35961;SDS011;22044;48.298;10.008;2023-11-18T08:45:14;11.17;;;8.90;;
35961;SDS011;22044;48.298;10.008;2023-11-18T08:48:03;10.33;;;7.90;;
35961;SDS011;22044;48.298;10.008;2023-11-18T08:50:52;11.37;;;8.47;;
35961;SDS011;22044;48.298;10.008;2023-11-18T08:53:38;11.47;;;9.17;;
35961;SDS011;22044;48.298;10.008;2023-11-18T08:56:26;10.17;;;8.37;;
35961;SDS011;22044;48.298;10.008;2023-11-18T08:59:18;10.17;;;8.27;;
35961;SDS011;22044;48.298;10.008;2023-11-18T09:02:08;9.93;;;7.83;;
35961;SDS011;22044;48.298;10.008;2023-11-18T09:04:58;9.47;;;7.80;;
35961;SDS011;22044;48.298;10.008;2023-11-18T09:07:46;9.40;;;7.63;;
35961;SDS011;22044;48.298;10.008;2023-11-18T09:10:34;11.23;;;8.57;;
35961;SDS011;22044;48.298;10.008;2023-11-18T09:13:20;10.80;;;7.90;;
35961;SDS011;22044;48.298;10.008;2023-11-18T09:16:09;9.53;;;7.60;;
35961;SDS011;22044;48.298;10.008;2023-11-18T09:18:55;10.83;;;8.50;;
35961;SDS011;22044;48.298;10.008;2023-11-18T09:21:43;10.90;;;7.80;;
35961;SDS011;22044;48.298;10.008;2023-11-18T09:24:30;10.73;;;8.53;;
35961;SDS011;22044;48.298;10.008;2023-11-18T09:27:17;9.63;;;7.87;;
35961;SDS011;22044;48.298;10.008;2023-11-18T09:30:03;11.00;;;8.37;;
35961;SDS011;22044;48.298;10.008;2023-11-18T09:32:57;8.47;;;7.33;;
35961;SDS011;22044;48.298;10.008;2023-11-18T09:35:46;10.43;;;7.47;;
35961;SDS011;22044;48.298;10.008;2023-11-18T09:38:32;15.07;;;7.93;;
35961;SDS011;22044;48.298;10.008;2023-11-18T09:41:22;10.50;;;8.37;;
35961;SDS011;22044;48.298;10.008;2023-11-18T09:44:10;10.60;;;8.40;;
35961;SDS011;22044;48.298;10.008;2023-11-18T09:46:57;12.57;;;9.67;;
35961;SDS011;22044;48.298;10.008;2023-11-18T09:49:49;13.23;;;7.93;;
35961;SDS011;22044;48.298;10.008;2023-11-18T09:52:38;10.30;;;8.67;;
35961;SDS011;22044;48.298;10.008;2023-11-18T09:55:36;10.57;;;8.87;;
35961;SDS011;22044;48.298;10.008;2023-11-18T09:58:45;9.43;;;7.20;;
35961;SDS011;22044;48.298;10.008;2023-11-18T10:01:49;10.00;;;8.30;;
35961;SDS011;22044;48.298;10.008;2023-11-18T10:04:37;9.10;;;7.70;;
35961;SDS011;22044;48.298;10.008;2023-11-18T10:07:23;9.20;;;7.40;;
35961;SDS011;22044;48.298;10.008;2023-11-18T10:10:11;8.33;;;7.43;;
35961;SDS011;22044;48.298;10.008;2023-11-18T10:12:59;7.60;;;6.80;;
35961;SDS011;22044;48.298;10.008;2023-11-18T10:15:50;9.43;;;6.43;;
35961;SDS011;22044;48.298;10.008;2023-11-18T10:18:38;7.70;;;5.90;;
35961;SDS011;22044;48.298;10.008;2023-11-18T10:21:34;8.90;;;7.13;;
35961;SDS011;22044;48.298;10.008;2023-11-18T10:24:23;8.20;;;6.83;;
35961;SDS011;22044;48.298;10.008;2023-11-18T10:27:10;14.03;;;7.10;;
35961;SDS011;22044;48.298;10.008;2023-11-18T10:29:55;9.33;;;7.00;;
35961;SDS011;22044;48.298;10.008;2023-11-18T10:32:43;11.33;;;6.83;;
35961;SDS011;22044;48.298;10.008;2023-11-18T10:35:30;15.03;;;6.87;;
35961;SDS011;22044;48.298;10.008;2023-11-18T10:38:15;11.73;;;6.80;;
35961;SDS011;22044;48.298;10.008;2023-11-18T10:41:01;22.10;;;7.83;;
35961;SDS011;22044;48.298;10.008;2023-11-18T10:43:47;10.67;;;6.77;;
35961;SDS011;22044;48.298;10.008;2023-11-18T10:46:32;7.73;;;6.20;;
35961;SDS011;22044;48.298;10.008;2023-11-18T10:49:21;10.37;;;6.03;;
35961;SDS011;22044;48.298;10.008;2023-11-18T10:52:06;13.13;;;7.43;;
35961;SDS011;22044;48.298;10.008;2023-11-18T10:54:53;10.73;;;5.97;;
35961;SDS011;22044;48.298;10.008;2023-11-18T10:57:40;13.93;;;6.27;;
35961;SDS011;22044;48.298;10.008;2023-11-18T11:00:25;11.00;;;6.40;;
35961;SDS011;22044;48.298;10.008;2023-11-18T11:03:17;9.17;;;5.13;;
35961;SDS011;22044;48.298;10.008;2023-11-18T11:06:10;8.33;;;6.20;;
35961;SDS011;22044;48.298;10.008;2023-11-18T11:09:02;9.10;;;6.20;;
35961;SDS011;22044;48.298;10.008;2023-11-18T11:11:53;9.40;;;5.30;;
35961;SDS011;22044;48.298;10.008;2023-11-18T11:14:46;6.07;;;5.47;;
35961;SDS011;22044;48.298;10.008;2023-11-18T11:17:44;5.83;;;5.23;;
35961;SDS011;22044;48.298;10.008;2023-11-18T11:20:39;7.57;;;5.10;;
35961;SDS011;22044;48.298;10.008;2023-11-18T11:23:30;6.07;;;5.47;;
35961;SDS011;22044;48.298;10.008;2023-11-18T11:26:39;8.13;;;6.30;;
35961;SDS011;22044;48.298;10.008;2023-11-18T11:29:40;9.40;;;6.13;;
35961;SDS011;22044;48.298;10.008;2023-11-18T11:32:35;7.00;;;5.60;;
35961;SDS011;22044;48.298;10.008;2023-11-18T11:35:32;9.33;;;6.20;;
35961;SDS011;22044;48.298;10.008;2023-11-18T11:38:22;6.17;;;5.57;;
35961;SDS011;22044;48.298;10.008;2023-11-18T11:41:12;5.93;;;5.33;;
35961;SDS011;22044;48.298;10.008;2023-11-18T11:44:10;6.67;;;5.30;;
35961;SDS011;22044;48.298;10.008;2023-11-18T11:46:58;5.87;;;5.10;;
35961;SDS011;22044;48.298;10.008;2023-11-18T11:49:47;9.37;;;5.97;;
35961;SDS011;22044;48.298;10.008;2023-11-18T11:52:42;5.80;;;5.20;;
35961;SDS011;22044;48.298;10.008;2023-11-18T11:55:33;6.53;;;5.70;;
35961;SDS011;22044;48.298;10.008;2023-11-18T11:58:27;5.90;;;5.30;;
35961;SDS011;22044;48.298;10.008;2023-11-18T12:01:15;6.67;;;5.70;;
35961;SDS011;22044;48.298;10.008;2023-11-18T12:04:08;16.77;;;11.20;;
35961;SDS011;22044;48.298;10.008;2023-11-18T12:07:04;7.30;;;5.83;;
35961;SDS011;22044;48.298;10.008;2023-11-18T12:09:55;7.67;;;5.63;;
35961;SDS011;22044;48.298;10.008;2023-11-18T12:12:41;6.37;;;5.63;;
35961;SDS011;22044;48.298;10.008;2023-11-18T12:18:40;7.23;;;6.03;;
35961;SDS011;22044;48.298;10.008;2023-11-18T12:24:40;6.63;;;5.40;;
35961;SDS011;22044;48.298;10.008;2023-11-18T12:27:42;8.10;;;5.87;;
35961;SDS011;22044;48.298;10.008;2023-11-18T12:30:38;6.00;;;5.40;;
35961;SDS011;22044;48.298;10.008;2023-11-18T12:36:58;7.47;;;6.03;;
35961;SDS011;22044;48.298;10.008;2023-11-18T12:43:42;9.30;;;6.70;;
35961;SDS011;22044;48.298;10.008;2023-11-18T12:49:40;6.63;;;5.90;;
35961;SDS011;22044;48.298;10.008;2023-11-18T12:52:27;8.50;;;6.73;;
35961;SDS011;22044;48.298;10.008;2023-11-18T12:55:12;6.93;;;6.23;;
35961;SDS011;22044;48.298;10.008;2023-11-18T12:58:02;6.83;;;5.70;;
35961;SDS011;22044;48.298;10.008;2023-11-18T13:00:49;6.43;;;5.80;;
35961;SDS011;22044;48.298;10.008;2023-11-18T13:03:35;7.93;;;6.40;;
35961;SDS011;22044;48.298;10.008;2023-11-18T13:06:22;7.47;;;5.37;;
35961;SDS011;22044;48.298;10.008;2023-11-18T13:09:12;7.20;;;6.20;;
35961;SDS011;22044;48.298;10.008;2023-11-18T13:12:08;9.73;;;4.67;;
35961;SDS011;22044;48.298;10.008;2023-11-18T13:14:56;5.73;;;4.83;;
35961;SDS011;22044;48.298;10.008;2023-11-18T13:17:45;5.70;;;4.63;;
35961;SDS011;22044;48.298;10.008;2023-11-18T13:20:42;5.27;;;4.77;;
35961;SDS011;22044;48.298;10.008;2023-11-18T13:23:40;4.90;;;4.30;;
35961;SDS011;22044;48.298;10.008;2023-11-18T13:26:26;5.70;;;5.03;;
35961;SDS011;22044;48.298;10.008;2023-11-18T13:29:14;5.37;;;4.53;;
35961;SDS011;22044;48.298;10.008;2023-11-18T13:32:00;4.57;;;4.17;;
35961;SDS011;22044;48.298;10.008;2023-11-18T13:34:47;4.97;;;4.57;;
35961;SDS011;22044;48.298;10.008;2023-11-18T13:37:34;5.93;;;4.63;;
35961;SDS011;22044;48.298;10.008;2023-11-18T13:40:21;5.87;;;4.40;;
35961;SDS011;22044;48.298;10.008;2023-11-18T13:43:07;8.23;;;4.80;;
35961;SDS011;22044;48.298;10.008;2023-11-18T13:45:53;6.47;;;4.33;;
35961;SDS011;22044;48.298;10.008;2023-11-18T13:48:46;4.70;;;4.20;;
35961;SDS011;22044;48.298;10.008;2023-11-18T13:51:32;6.27;;;4.20;;
35961;SDS011;22044;48.298;10.008;2023-11-18T13:54:20;5.83;;;4.43;;
35961;SDS011;22044;48.298;10.008;2023-11-18T13:57:07;6.10;;;4.77;;
35961;SDS011;22044;48.298;10.008;2023-11-18T13:59:53;5.27;;;4.60;;
35961;SDS011;22044;48.298;10.008;2023-11-18T14:02:39;5.93;;;4.47;;
35961;SDS011;22044;48.298;10.008;2023-11-18T14:05:25;4.60;;;4.20;;
35961;SDS011;22044;48.298;10.008;2023-11-18T14:08:10;4.80;;;4.33;;
35961;SDS011;22044;48.298;10.008;2023-11-18T14:11:03;5.13;;;4.47;;
35961;SDS011;22044;48.298;10.008;2023-11-18T14:13:51;4.47;;;4.07;;
35961;SDS011;22044;48.298;10.008;2023-11-18T14:16:37;5.60;;;4.10;;
35961;SDS011;22044;48.298;10.008;2023-11-18T14:19:23;4.70;;;4.30;;
35961;SDS011;22044;48.298;10.008;2023-11-18T14:22:09;5.30;;;3.73;;
35961;SDS011;22044;48.298;10.008;2023-11-18T14:24:55;5.13;;;4.20;;
35961;SDS011;22044;48.298;10.008;2023-11-18T14:27:40;5.03;;;3.93;;
35961;SDS011;22044;48.298;10.008;2023-11-18T14:30:27;6.27;;;4.90;;
35961;SDS011;22044;48.298;10.008;2023-11-18T14:33:14;7.80;;;5.20;;
35961;SDS011;22044;48.298;10.008;2023-11-18T14:35:59;5.70;;;4.60;;
35961;SDS011;22044;48.298;10.008;2023-11-18T14:38:45;7.60;;;5.73;;
35961;SDS011;22044;48.298;10.008;2023-11-18T14:41:31;5.67;;;4.93;;
35961;SDS011;22044;48.298;10.008;2023-11-18T14:44:17;7.87;;;5.60;;
35961;SDS011;22044;48.298;10.008;2023-11-18T14:47:05;6.43;;;5.60;;
35961;SDS011;22044;48.298;10.008;2023-11-18T14:49:51;7.10;;;6.30;;
35961;SDS011;22044;48.298;10.008;2023-11-18T14:52:37;6.30;;;5.63;;
35961;SDS011;22044;48.298;10.008;2023-11-18T14:55:24;12.87;;;11.77;;
35961;SDS011;22044;48.298;10.008;2023-11-18T14:58:10;25.83;;;23.60;;
35961;SDS011;22044;48.298;10.008;2023-11-18T15:00:57;21.07;;;19.23;;
35961;SDS011;22044;48.298;10.008;2023-11-18T15:03:45;16.60;;;14.87;;
35961;SDS011;22044;48.298;10.008;2023-11-18T15:06:30;9.80;;;8.90;;
35961;SDS011;22044;48.298;10.008;2023-11-18T15:09:16;5.13;;;4.63;;
35961;SDS011;22044;48.298;10.008;2023-11-18T15:12:02;4.33;;;3.80;;
35961;SDS011;22044;48.298;10.008;2023-11-18T15:14:48;7.30;;;4.40;;
35961;SDS011;22044;48.298;10.008;2023-11-18T15:17:34;5.73;;;4.27;;
35961;SDS011;22044;48.298;10.008;2023-11-18T15:20:24;6.03;;;4.13;;
35961;SDS011;22044;48.298;10.008;2023-11-18T15:23:10;5.70;;;4.10;;
35961;SDS011;22044;48.298;10.008;2023-11-18T15:25:56;5.23;;;4.17;;
35961;SDS011;22044;48.298;10.008;2023-11-18T15:28:42;6.90;;;4.33;;
35961;SDS011;22044;48.298;10.008;2023-11-18T15:31:27;5.40;;;4.53;;
35961;SDS011;22044;48.298;10.008;2023-11-18T15:34:14;7.37;;;4.60;;
35961;SDS011;22044;48.298;10.008;2023-11-18T15:37:01;6.20;;;4.93;;
35961;SDS011;22044;48.298;10.008;2023-11-18T15:39:47;6.13;;;5.53;;
35961;SDS011;22044;48.298;10.008;2023-11-18T15:42:32;6.03;;;5.00;;
35961;SDS011;22044;48.298;10.008;2023-11-18T15:45:20;5.27;;;3.83;;
35961;SDS011;22044;48.298;10.008;2023-11-18T15:48:08;7.40;;;4.10;;
35961;SDS011;22044;48.298;10.008;2023-11-18T15:50:53;7.03;;;3.53;;
35961;SDS011;22044;48.298;10.008;2023-11-18T15:53:40;5.50;;;3.47;;
35961;SDS011;22044;48.298;10.008;2023-11-18T15:56:26;4.97;;;3.80;;
35961;SDS011;22044;48.298;10.008;2023-11-18T15:59:12;4.87;;;3.10;;
35961;SDS011;22044;48.298;10.008;2023-11-18T16:01:58;4.43;;;2.90;;
35961;SDS011;22044;48.298;10.008;2023-11-18T16:04:43;3.53;;;3.03;;
35961;SDS011;22044;48.298;10.008;2023-11-18T16:07:29;5.27;;;3.00;;
35961;SDS011;22044;48.298;10.008;2023-11-18T16:10:17;4.00;;;3.38;;
35961;SDS011;22044;48.298;10.008;2023-11-18T16:13:05;3.53;;;2.93;;
35961;SDS011;22044;48.298;10.008;2023-11-18T16:15:50;4.47;;;3.63;;
35961;SDS011;22044;48.298;10.008;2023-11-18T16:18:36;6.10;;;3.43;;
35961;SDS011;22044;48.298;10.008;2023-11-18T16:21:22;3.20;;;2.90;;
35961;SDS011;22044;48.298;10.008;2023-11-18T16:24:08;6.50;;;3.20;;
35961;SDS011;22044;48.298;10.008;2023-11-18T16:26:54;5.70;;;3.10;;
35961;SDS011;22044;48.298;10.008;2023-11-18T16:29:40;5.03;;;3.30;;
35961;SDS011;22044;48.298;10.008;2023-11-18T16:32:26;4.77;;;3.37;;
35961;SDS011;22044;48.298;10.008;2023-11-18T16:35:12;4.10;;;3.30;;
35961;SDS011;22044;48.298;10.008;2023-11-18T16:37:57;3.27;;;2.97;;
35961;SDS011;22044;48.298;10.008;2023-11-18T16:40:43;3.40;;;2.73;;
35961;SDS011;22044;48.298;10.008;2023-11-18T16:43:30;4.73;;;3.03;;
35961;SDS011;22044;48.298;10.008;2023-11-18T16:46:16;3.97;;;3.20;;